createdAt,value
2023-04-08T00:02:08.063Z,102496.66
2023-04-08T00:04:35.806Z,102497.34
2023-04-08T00:07:03.574Z,102494.44
2023-04-08T00:09:32.515Z,102490.94
2023-04-08T00:12:01.232Z,102498.44
2023-04-08T00:14:29.122Z,102493.53
2023-04-08T00:16:56.804Z,102500.38
2023-04-08T00:19:25.203Z,102499.03
2023-04-08T00:21:52.802Z,102499.75
2023-04-08T00:24:20.642Z,102503.69
2023-04-08T00:26:49.604Z,102491.78
2023-04-08T00:29:17.300Z,102490.50
2023-04-08T00:31:44.875Z,102488.94
2023-04-08T00:34:12.564Z,102490.13
2023-04-08T00:36:40.182Z,102488.19
2023-04-08T00:39:08.046Z,102479.31
2023-04-08T00:41:36.334Z,102481.69
2023-04-08T00:44:05.370Z,102486.63
2023-04-08T00:46:37.487Z,102483.00
2023-04-08T00:49:05.373Z,102483.41
2023-04-08T00:51:33.115Z,102478.34
2023-04-08T00:54:01.481Z,102483.41
2023-04-08T00:56:29.361Z,102487.00
2023-04-08T00:58:57.075Z,102482.09
2023-04-08T01:01:33.984Z,102469.09
2023-04-08T01:04:09.962Z,102478.22
2023-04-08T01:06:46.873Z,102483.91
2023-04-08T01:09:15.059Z,102490.41
2023-04-08T01:11:45.245Z,102492.19
2023-04-08T01:14:18.499Z,102483.81
2023-04-08T01:16:48.644Z,102487.75
2023-04-08T01:19:25.228Z,102491.94
2023-04-08T01:21:54.672Z,102492.94
2023-04-08T01:24:29.212Z,102481.00
2023-04-08T01:27:00.049Z,102485.19
2023-04-08T01:29:28.074Z,102482.81
2023-04-08T01:31:57.241Z,102495.94
2023-04-08T01:34:27.099Z,102483.06
2023-04-08T01:36:58.362Z,102491.50
2023-04-08T01:39:27.056Z,102488.00
2023-04-08T01:41:57.188Z,102499.69
2023-04-08T01:44:27.562Z,102489.44
2023-04-08T01:46:57.563Z,102490.28
2023-04-08T01:49:27.111Z,102486.66
2023-04-08T01:51:56.142Z,102486.91
2023-04-08T01:54:23.860Z,102491.38
2023-04-08T01:56:53.578Z,102481.00
2023-04-08T01:59:24.278Z,102484.16
2023-04-08T02:01:54.498Z,102482.22
2023-04-08T02:04:22.319Z,102490.88
2023-04-08T02:06:51.126Z,102484.00
2023-04-08T02:09:18.717Z,102488.94
2023-04-08T02:11:46.694Z,102480.28
2023-04-08T02:14:14.520Z,102479.56
2023-04-08T02:16:47.478Z,102483.50
2023-04-08T02:19:21.859Z,102478.22
2023-04-08T02:21:53.145Z,102481.00
2023-04-08T02:24:23.069Z,102490.63
2023-04-08T02:26:52.236Z,102485.19
2023-04-08T02:29:20.321Z,102485.44
2023-04-08T02:31:49.251Z,102492.44
2023-04-08T02:34:19.125Z,102493.84
2023-04-08T02:36:47.924Z,102494.34
2023-04-08T02:39:16.047Z,102494.91
2023-04-08T02:41:43.672Z,102490.94
2023-04-08T02:44:11.331Z,102483.59
2023-04-08T02:46:39.167Z,102495.28
2023-04-08T02:49:06.841Z,102497.34
2023-04-08T02:51:36.008Z,102489.28
2023-04-08T02:54:03.578Z,102493.41
2023-04-08T02:56:31.162Z,102497.25
2023-04-08T02:58:58.748Z,102496.13
2023-04-08T03:01:26.378Z,102493.59
2023-04-08T03:03:54.153Z,102504.09
2023-04-08T03:06:21.830Z,102503.88
2023-04-08T03:08:51.571Z,102504.34
2023-04-08T03:11:19.368Z,102506.75
2023-04-08T03:13:47.120Z,102502.28
2023-04-08T03:16:14.781Z,102504.34
2023-04-08T03:18:42.368Z,102505.88
2023-04-08T03:21:10.022Z,102505.88
2023-04-08T03:23:37.629Z,102501.81
2023-04-08T03:26:06.728Z,102499.88
2023-04-08T03:28:34.338Z,102508.53
2023-04-08T03:31:01.963Z,102507.00
2023-04-08T03:33:29.793Z,102500.00
2023-04-08T03:35:57.549Z,102510.84
2023-04-08T03:38:25.266Z,102510.50
2023-04-08T03:40:52.909Z,102501.84
2023-04-08T03:43:22.003Z,102507.38
2023-04-08T03:45:49.654Z,102499.09
2023-04-08T03:48:17.606Z,102511.22
2023-04-08T03:50:45.212Z,102514.13
2023-04-08T03:53:12.971Z,102510.25
2023-04-08T03:55:40.630Z,102508.00
2023-04-08T03:58:08.311Z,102517.72
2023-04-08T04:00:37.851Z,102515.94
2023-04-08T04:03:05.706Z,102527.03
2023-04-08T04:05:33.398Z,102532.31
2023-04-08T04:08:01.142Z,102521.34
2023-04-08T04:10:28.853Z,102526.88
2023-04-08T04:12:56.679Z,102519.94
2023-04-08T04:15:24.315Z,102530.88
2023-04-08T04:17:53.342Z,102532.56
2023-04-08T04:20:21.870Z,102522.69
2023-04-08T04:22:49.751Z,102520.41
2023-04-08T04:25:17.367Z,102526.31
2023-04-08T04:27:45.025Z,102536.16
2023-04-08T04:30:15.445Z,102548.81
2023-04-08T04:32:43.638Z,102534.63
2023-04-08T04:35:12.807Z,102529.47
2023-04-08T04:37:40.695Z,102545.44
2023-04-08T04:40:09.261Z,102535.00
2023-04-08T04:42:36.861Z,102541.34
2023-04-08T04:45:05.197Z,102546.28
2023-04-08T04:47:33.001Z,102547.00
2023-04-08T04:50:00.662Z,102543.41
2023-04-08T04:52:30.897Z,102556.16
2023-04-08T04:54:58.597Z,102557.25
2023-04-08T04:57:26.599Z,102551.69
2023-04-08T04:59:54.301Z,102552.66
2023-04-08T05:02:22.108Z,102560.75
2023-04-08T05:04:49.882Z,102566.59
2023-04-08T05:07:17.495Z,102564.81
2023-04-08T05:09:46.835Z,102559.28
2023-04-08T05:12:14.561Z,102567.47
2023-04-08T05:14:42.295Z,102571.06
2023-04-08T05:17:09.980Z,102569.13
2023-04-08T05:19:37.582Z,102569.25
2023-04-08T05:22:05.434Z,102579.97
2023-04-08T05:24:33.014Z,102577.44
2023-04-08T05:27:02.579Z,102584.66
2023-04-08T05:29:30.538Z,102579.50
2023-04-08T05:31:58.185Z,102579.75
2023-04-08T05:34:25.843Z,102577.94
2023-04-08T05:36:53.428Z,102586.34
2023-04-08T05:39:21.452Z,102585.16
2023-04-08T05:41:49.082Z,102591.75
2023-04-08T05:44:18.662Z,102586.75
2023-04-08T05:46:46.321Z,102579.59
2023-04-08T05:49:14.051Z,102595.41
2023-04-08T05:51:41.700Z,102599.75
2023-04-08T05:54:09.270Z,102597.19
2023-04-08T05:56:36.914Z,102590.81
2023-04-08T05:59:04.775Z,102601.66
2023-04-08T06:01:33.901Z,102597.34
2023-04-08T06:04:01.820Z,102608.25
2023-04-08T06:06:29.656Z,102607.19
2023-04-08T06:08:57.504Z,102609.72
2023-04-08T06:11:25.299Z,102615.97
2023-04-08T06:13:52.900Z,102623.34
2023-04-08T06:16:21.117Z,102626.09
2023-04-08T06:18:50.505Z,102616.38
2023-04-08T06:21:18.646Z,102619.13
2023-04-08T06:23:46.315Z,102632.25
2023-04-08T06:26:14.452Z,102621.66
2023-04-08T06:28:42.075Z,102619.44
2023-04-08T06:31:09.701Z,102628.16
2023-04-08T06:33:37.302Z,102626.31
2023-04-08T06:36:08.272Z,102623.25
2023-04-08T06:38:36.159Z,102628.75
2023-04-08T06:41:04.644Z,102632.09
2023-04-08T06:43:32.311Z,102623.28
2023-04-08T06:45:59.979Z,102624.69
2023-04-08T06:48:30.241Z,102630.69
2023-04-08T06:50:58.386Z,102630.69
2023-04-08T06:53:29.224Z,102638.75
2023-04-08T06:55:56.889Z,102639.69
2023-04-08T06:58:24.888Z,102642.88
2023-04-08T07:00:52.581Z,102653.22
2023-04-08T07:03:20.343Z,102647.59
2023-04-08T07:05:48.904Z,102657.81
2023-04-08T07:08:16.662Z,102656.78
2023-04-08T07:10:45.692Z,102656.13
2023-04-08T07:13:13.302Z,102651.59
2023-04-08T07:15:41.967Z,102654.91
2023-04-08T07:18:09.552Z,102661.69
2023-04-08T07:20:38.402Z,102662.53
2023-04-08T07:23:06.550Z,102656.09
2023-04-08T07:25:35.099Z,102659.75
2023-04-08T07:28:04.158Z,102658.47
2023-04-08T07:30:32.027Z,102667.34
2023-04-08T07:33:00.937Z,102657.91
2023-04-08T07:35:29.473Z,102668.00
2023-04-08T07:37:57.733Z,102668.31
2023-04-08T07:40:25.410Z,102657.47
2023-04-08T07:42:53.198Z,102669.97
2023-04-08T07:45:22.135Z,102670.25
2023-04-08T07:47:49.883Z,102662.84
2023-04-08T07:50:17.540Z,102666.75
2023-04-08T07:52:45.150Z,102665.66
2023-04-08T07:55:13.058Z,102671.84
2023-04-08T07:57:40.737Z,102666.81
2023-04-08T08:00:09.500Z,102667.25
2023-04-08T08:02:38.610Z,102664.72
2023-04-08T08:05:07.848Z,102670.16
2023-04-08T08:07:35.642Z,102675.75
2023-04-08T08:10:03.270Z,102668.09
2023-04-08T08:12:31.358Z,102676.34
2023-04-08T08:14:59.532Z,102680.84
2023-04-08T08:17:30.083Z,102682.06
2023-04-08T08:19:59.077Z,102673.81
2023-04-08T08:22:26.987Z,102676.03
2023-04-08T08:24:57.777Z,102688.38
2023-04-08T08:27:25.514Z,102678.72
2023-04-08T08:29:53.308Z,102685.88
2023-04-08T08:32:21.063Z,102685.97
2023-04-08T08:34:48.692Z,102677.63
2023-04-08T08:37:17.685Z,102684.66
2023-04-08T08:39:45.372Z,102678.78
2023-04-08T08:42:21.637Z,102691.16
2023-04-08T08:44:49.350Z,102690.56
2023-04-08T08:47:17.121Z,102701.13
2023-04-08T08:49:45.621Z,102695.19
2023-04-08T08:52:18.459Z,102691.59
2023-04-08T08:54:47.244Z,102700.97
2023-04-08T08:57:19.334Z,102696.47
2023-04-08T08:59:47.776Z,102693.53
2023-04-08T09:02:27.468Z,102698.13
2023-04-08T09:05:00.176Z,102694.09
2023-04-08T09:07:30.647Z,102704.88
2023-04-08T09:10:00.625Z,102691.72
2023-04-08T09:12:29.162Z,102701.34
2023-04-08T09:15:05.533Z,102697.44
2023-04-08T09:17:34.512Z,102710.47
2023-04-08T09:20:09.593Z,102702.75
2023-04-08T09:22:56.790Z,102705.06
2023-04-08T09:25:25.508Z,102698.56
2023-04-08T09:27:54.180Z,102701.66
2023-04-08T09:30:24.479Z,102721.28
2023-04-08T09:32:53.681Z,102718.81
2023-04-08T09:35:22.418Z,102717.69
2023-04-08T09:37:52.521Z,102731.50
2023-04-08T09:40:20.750Z,102715.22
2023-04-08T09:42:51.109Z,102723.78
2023-04-08T09:45:19.658Z,102724.25
2023-04-08T09:48:11.309Z,102729.19
2023-04-08T09:50:44.725Z,102726.09
2023-04-08T09:53:16.358Z,102735.94
2023-04-08T09:55:45.273Z,102731.03
2023-04-08T09:58:17.940Z,102737.63
2023-04-08T10:00:51.483Z,102735.09
2023-04-08T10:03:30.861Z,102742.47
2023-04-08T10:06:02.253Z,102746.38
2023-04-08T10:08:33.009Z,102745.97
2023-04-08T10:11:01.080Z,102741.06
2023-04-08T10:13:29.588Z,102737.44
2023-04-08T10:16:25.869Z,102743.72
2023-04-08T10:18:56.028Z,102731.72
2023-04-08T10:21:34.039Z,102740.22
2023-04-08T10:24:06.917Z,102727.50
2023-04-08T10:26:36.878Z,102732.13
2023-04-08T10:29:44.257Z,102722.75
2023-04-08T10:32:29.946Z,102724.28
2023-04-08T10:34:57.700Z,102721.72
2023-04-08T10:37:25.326Z,102724.53
2023-04-08T10:39:56.760Z,102729.31
2023-04-08T10:42:29.119Z,102720.09
2023-04-08T10:45:01.407Z,102713.38
2023-04-08T10:47:29.931Z,102721.53
2023-04-08T10:49:57.752Z,102718.56
2023-04-08T10:52:27.478Z,102715.88
2023-04-08T10:54:56.705Z,102724.06
2023-04-08T10:57:27.451Z,102723.22
2023-04-08T10:59:55.031Z,102723.22
2023-04-08T11:02:22.824Z,102720.78
2023-04-08T11:04:51.010Z,102717.63
2023-04-08T11:07:21.625Z,102710.59
2023-04-08T11:09:49.914Z,102722.06
2023-04-08T11:12:19.709Z,102722.72
2023-04-08T11:14:49.583Z,102711.84
2023-04-08T11:17:17.812Z,102710.28
2023-04-08T11:19:45.658Z,102716.16
2023-04-08T11:22:14.516Z,102709.72
2023-04-08T11:24:42.315Z,102718.28
2023-04-08T11:27:10.748Z,102703.91
2023-04-08T11:29:40.051Z,102716.06
2023-04-08T11:32:08.883Z,102715.06
2023-04-08T11:34:40.496Z,102716.31
2023-04-08T11:37:08.223Z,102715.00
2023-04-08T11:39:36.353Z,102712.94
2023-04-08T11:42:04.116Z,102714.31
2023-04-08T11:44:33.165Z,102713.97
2023-04-08T11:47:03.021Z,102717.66
2023-04-08T11:49:45.208Z,102714.44
2023-04-08T11:52:13.002Z,102714.81
2023-04-08T11:54:43.076Z,102712.72
2023-04-08T11:57:11.418Z,102702.88
2023-04-08T11:59:39.123Z,102710.56
2023-04-08T12:02:08.323Z,102723.25
2023-04-08T12:04:35.966Z,102710.97
2023-04-08T12:07:04.237Z,102717.81
2023-04-08T12:09:31.842Z,102718.97
2023-04-08T12:11:59.407Z,102721.34
2023-04-08T12:14:28.398Z,102725.22
2023-04-08T12:16:56.736Z,102737.16
2023-04-08T12:19:25.754Z,102732.56
2023-04-08T12:21:53.482Z,102733.19
2023-04-08T12:24:21.069Z,102725.88
2023-04-08T12:26:48.675Z,102729.69
2023-04-08T12:29:16.337Z,102725.03
2023-04-08T12:31:43.990Z,102726.28
2023-04-08T12:34:11.636Z,102727.59
2023-04-08T12:36:41.928Z,102731.22
2023-04-08T12:39:09.705Z,102736.66
2023-04-08T12:41:37.357Z,102730.75
2023-04-08T12:44:05.513Z,102729.53
2023-04-08T12:46:33.149Z,102732.63
2023-04-08T12:49:04.672Z,102730.47
2023-04-08T12:51:33.265Z,102734.25
2023-04-08T12:54:03.545Z,102726.81
2023-04-08T12:56:31.631Z,102733.72
2023-04-08T12:58:59.372Z,102731.41
2023-04-08T13:01:27.019Z,102728.38
2023-04-08T13:03:55.380Z,102735.25
2023-04-08T13:06:23.574Z,102737.56
2023-04-08T13:08:51.296Z,102735.56
2023-04-08T13:11:21.249Z,102732.97
2023-04-08T13:13:48.891Z,102733.84
2023-04-08T13:16:16.840Z,102727.66
2023-04-08T13:18:44.474Z,102720.50
2023-04-08T13:21:12.085Z,102729.53
2023-04-08T13:23:39.783Z,102722.88
2023-04-08T13:26:07.762Z,102716.00
2023-04-08T13:28:49.672Z,102727.53
2023-04-08T13:31:24.017Z,102730.09
2023-04-08T13:33:51.744Z,102725.81
2023-04-08T13:36:19.767Z,102722.13
2023-04-08T13:38:47.382Z,102726.28
2023-04-08T13:41:15.139Z,102729.00
2023-04-08T13:43:44.295Z,102729.25
2023-04-08T13:46:12.056Z,102728.72
2023-04-08T13:48:39.703Z,102731.00
2023-04-08T13:51:07.571Z,102727.47
2023-04-08T13:53:35.387Z,102726.69
2023-04-08T13:56:03.109Z,102736.31
2023-04-08T13:58:31.470Z,102734.47
2023-04-08T14:01:00.650Z,102733.84
2023-04-08T14:03:28.705Z,102738.25
2023-04-08T14:05:56.806Z,102737.19
2023-04-08T14:08:26.075Z,102735.03
2023-04-08T14:10:53.925Z,102737.81
2023-04-08T14:13:21.840Z,102738.75
2023-04-08T14:15:49.950Z,102729.91
2023-04-08T14:18:18.961Z,102727.91
2023-04-08T14:20:46.589Z,102734.09
2023-04-08T14:23:14.398Z,102723.31
2023-04-08T14:25:42.008Z,102730.91
2023-04-08T14:28:09.712Z,102729.28
2023-04-08T14:30:37.792Z,102726.56
2023-04-08T14:33:06.536Z,102734.25
2023-04-08T14:35:36.707Z,102722.63
2023-04-08T14:38:04.307Z,102728.00
2023-04-08T14:40:31.958Z,102720.44
2023-04-08T14:42:59.621Z,102723.00
2023-04-08T14:45:27.209Z,102731.03
2023-04-08T14:47:54.838Z,102713.94
2023-04-08T14:50:22.565Z,102724.81
2023-04-08T14:52:51.944Z,102725.97
2023-04-08T14:55:22.479Z,102716.09
2023-04-08T14:57:50.470Z,102711.25
2023-04-08T15:00:18.299Z,102719.09
2023-04-08T15:02:46.077Z,102720.25
2023-04-08T15:05:13.841Z,102714.38
2023-04-08T15:07:41.814Z,102720.53
2023-04-08T15:10:11.685Z,102720.25
2023-04-08T15:12:39.365Z,102719.84
2023-04-08T15:15:08.271Z,102712.34
2023-04-08T15:17:35.908Z,102715.22
2023-04-08T15:20:03.716Z,102715.84
2023-04-08T15:22:32.447Z,102720.69
2023-04-08T15:25:00.925Z,102715.34
2023-04-08T15:27:29.971Z,102714.22
2023-04-08T15:29:57.791Z,102716.72
2023-04-08T15:32:25.510Z,102713.06
2023-04-08T15:34:53.154Z,102701.53
2023-04-08T15:37:22.543Z,102714.22
2023-04-08T15:39:50.216Z,102711.47
2023-04-08T15:42:17.797Z,102709.19
2023-04-08T15:44:46.779Z,102711.03
2023-04-08T15:47:15.065Z,102714.69
2023-04-08T15:49:43.198Z,102710.81
2023-04-08T15:52:11.709Z,102719.31
2023-04-08T15:54:39.293Z,102719.13
2023-04-08T15:57:07.056Z,102722.25
2023-04-08T15:59:34.674Z,102721.41
2023-04-08T16:02:03.757Z,102723.94
2023-04-08T16:04:31.564Z,102722.25
2023-04-08T16:06:59.514Z,102728.75
2023-04-08T16:09:27.138Z,102731.97
2023-04-08T16:11:54.841Z,102731.09
2023-04-08T16:14:22.461Z,102723.50
2023-04-08T16:16:51.263Z,102731.53
2023-04-08T16:19:22.154Z,102732.34
2023-04-08T16:21:50.007Z,102736.03
2023-04-08T16:24:20.598Z,102726.69
2023-04-08T16:26:48.404Z,102721.66
2023-04-08T16:29:16.130Z,102723.91
2023-04-08T16:31:43.748Z,102723.75
2023-04-08T16:34:11.387Z,102722.69
2023-04-08T16:36:40.393Z,102721.44
2023-04-08T16:39:08.041Z,102725.44
2023-04-08T16:41:36.659Z,102735.13
2023-04-08T16:44:04.231Z,102721.09
2023-04-08T16:46:31.894Z,102723.06
2023-04-08T16:48:59.523Z,102728.84
2023-04-08T16:51:27.204Z,102722.84
2023-04-08T16:53:58.589Z,102727.09
2023-04-08T16:56:27.181Z,102731.06
2023-04-08T16:58:54.881Z,102728.09
2023-04-08T17:01:22.534Z,102739.22
2023-04-08T17:03:50.475Z,102729.06
2023-04-08T17:06:18.641Z,102732.84
2023-04-08T17:08:46.270Z,102737.75
2023-04-08T17:11:16.085Z,102732.56
2023-04-08T17:13:45.097Z,102743.97
2023-04-08T17:16:13.372Z,102737.00
2023-04-08T17:18:41.361Z,102727.59
2023-04-08T17:21:09.422Z,102737.72
2023-04-08T17:23:37.070Z,102735.13
2023-04-08T17:26:07.280Z,102743.69
2023-04-08T17:28:36.573Z,102741.00
2023-04-08T17:31:04.543Z,102741.13
2023-04-08T17:33:33.839Z,102749.59
2023-04-08T17:36:01.545Z,102738.81
2023-04-08T17:38:29.368Z,102745.81
2023-04-08T17:40:57.072Z,102745.28
2023-04-08T17:43:24.854Z,102741.78
2023-04-08T17:45:54.916Z,102747.66
2023-04-08T17:48:22.663Z,102736.88
2023-04-08T17:50:50.418Z,102744.44
2023-04-08T17:53:18.146Z,102755.66
2023-04-08T17:55:45.863Z,102751.72
2023-04-08T17:58:13.532Z,102755.78
2023-04-08T18:00:41.522Z,102757.56
2023-04-08T18:03:10.824Z,102757.56
2023-04-08T18:05:38.856Z,102757.66
2023-04-08T18:08:06.529Z,102762.69
2023-04-08T18:10:34.373Z,102760.72
2023-04-08T18:15:35.646Z,102763.03
2023-04-08T18:18:03.654Z,102762.00
2023-04-08T18:20:36.573Z,102768.69
2023-04-08T18:23:04.848Z,102776.22
2023-04-08T18:25:34.423Z,102776.84
2023-04-08T18:28:02.244Z,102777.22
2023-04-08T18:30:30.082Z,102776.94
2023-04-08T18:32:58.488Z,102783.63
2023-04-08T18:35:26.338Z,102783.41
2023-04-08T18:37:56.419Z,102790.22
2023-04-08T18:40:24.884Z,102797.72
2023-04-08T18:42:52.627Z,102794.72
2023-04-08T18:45:20.279Z,102795.28
2023-04-08T18:47:47.878Z,102804.56
2023-04-08T18:50:15.540Z,102798.81
2023-04-08T18:52:43.658Z,102800.28
2023-04-08T18:55:12.716Z,102802.63
2023-04-08T18:57:40.486Z,102795.97
2023-04-08T19:00:09.445Z,102808.94
2023-04-08T19:02:37.405Z,102809.28
2023-04-08T19:05:05.641Z,102805.47
2023-04-08T19:07:34.238Z,102810.19
2023-04-08T19:10:01.967Z,102815.84
2023-04-08T19:12:31.380Z,102810.91
2023-04-08T19:14:59.312Z,102813.91
2023-04-08T19:17:27.002Z,102807.91
2023-04-08T19:19:54.599Z,102806.59
2023-04-08T19:22:22.286Z,102809.59
2023-04-08T19:24:50.007Z,102809.13
2023-04-08T19:27:17.630Z,102812.28
2023-04-08T19:29:46.601Z,102813.47
2023-04-08T19:32:14.366Z,102816.38
2023-04-08T19:34:42.506Z,102815.91
2023-04-08T19:37:10.548Z,102815.41
2023-04-08T19:39:38.417Z,102808.44
2023-04-08T19:42:06.324Z,102819.28
2023-04-08T19:44:34.532Z,102818.66
2023-04-08T19:47:05.978Z,102813.72
2023-04-08T19:49:33.605Z,102814.06
2023-04-08T19:52:01.175Z,102820.47
2023-04-08T19:54:29.476Z,102815.88
2023-04-08T19:56:58.437Z,102822.41
2023-04-08T19:59:26.266Z,102819.84
2023-04-08T20:01:54.212Z,102825.03
2023-04-08T20:04:23.428Z,102822.41
2023-04-08T20:06:51.206Z,102823.34
2023-04-08T20:09:19.180Z,102826.22
2023-04-08T20:11:46.873Z,102830.06
2023-04-08T20:14:15.152Z,102828.41
2023-04-08T20:16:42.795Z,102832.94
2023-04-08T20:19:10.391Z,102827.88
2023-04-08T20:21:39.385Z,102833.41
2023-04-08T20:24:07.233Z,102833.66
2023-04-08T20:26:35.726Z,102833.16
2023-04-08T20:29:03.301Z,102841.34
2023-04-08T20:31:32.184Z,102841.47
2023-04-08T20:34:00.225Z,102847.97
2023-04-08T20:36:29.665Z,102840.00
2023-04-08T20:38:58.648Z,102843.97
2023-04-08T20:41:27.109Z,102851.16
2023-04-08T20:43:55.486Z,102853.94
2023-04-08T20:46:24.552Z,102848.03
2023-04-08T20:48:52.565Z,102856.06
2023-04-08T20:51:20.552Z,102853.53
2023-04-08T20:53:48.322Z,102859.91
2023-04-08T20:56:17.342Z,102859.03
2023-04-08T20:58:44.987Z,102857.38
2023-04-08T21:01:12.670Z,102855.91
2023-04-08T21:03:40.477Z,102859.50
2023-04-08T21:06:09.003Z,102853.72
2023-04-08T21:08:36.615Z,102854.88
2023-04-08T21:11:04.236Z,102851.50
2023-04-08T21:13:33.249Z,102846.31
2023-04-08T21:16:00.904Z,102850.03
2023-04-08T21:18:28.503Z,102848.59
2023-04-08T21:20:56.521Z,102849.31
2023-04-08T21:23:24.454Z,102852.19
2023-04-08T21:25:52.388Z,102855.78
2023-04-08T21:28:19.979Z,102862.38
2023-04-08T21:30:49.284Z,102869.91
2023-04-08T21:33:16.972Z,102873.00
2023-04-08T21:35:44.696Z,102863.63
2023-04-08T21:38:12.664Z,102869.22
2023-04-08T21:40:41.171Z,102865.22
2023-04-08T21:43:08.733Z,102859.19
2023-04-08T21:45:36.746Z,102865.66
2023-04-08T21:48:07.051Z,102861.34
2023-04-08T21:50:34.681Z,102869.28
2023-04-08T21:53:02.441Z,102866.72
2023-04-08T21:55:30.383Z,102864.94
2023-04-08T21:57:58.038Z,102859.94
2023-04-08T22:00:26.060Z,102860.81
2023-04-08T22:02:53.828Z,102864.44
2023-04-08T22:05:23.337Z,102870.66
2023-04-08T22:07:51.053Z,102854.88
2023-04-08T22:10:19.007Z,102859.34
2023-04-08T22:12:46.797Z,102858.59
2023-04-08T22:15:14.351Z,102860.53
2023-04-08T22:17:41.948Z,102861.59
2023-04-08T22:20:10.546Z,102859.78
2023-04-08T22:22:39.555Z,102853.66
2023-04-08T22:25:08.490Z,102866.97
2023-04-08T22:27:36.318Z,102866.97
2023-04-08T22:30:03.948Z,102864.44
2023-04-08T22:32:31.586Z,102860.94
2023-04-08T22:34:59.199Z,102857.59
2023-04-08T22:37:27.142Z,102859.47
2023-04-08T22:39:57.121Z,102861.25
2023-04-08T22:42:25.553Z,102862.03
2023-04-08T22:44:53.219Z,102863.69
2023-04-08T22:47:21.363Z,102858.31
2023-04-08T22:49:49.037Z,102860.81
2023-04-08T22:52:16.692Z,102858.19
2023-04-08T22:54:44.253Z,102858.09
2023-04-08T22:57:13.182Z,102860.81
2023-04-08T22:59:40.955Z,102869.94
2023-04-08T23:02:08.620Z,102857.88
2023-04-08T23:04:37.033Z,102864.34
2023-04-08T23:07:04.747Z,102864.66
2023-04-08T23:09:32.418Z,102856.09
2023-04-08T23:12:01.266Z,102860.88
2023-04-08T23:14:30.298Z,102864.03
2023-04-08T23:16:57.855Z,102861.72
2023-04-08T23:19:25.447Z,102868.16
2023-04-08T23:21:53.474Z,102862.38
2023-04-08T23:24:21.085Z,102863.50
2023-04-08T23:26:49.190Z,102863.63
2023-04-08T23:29:16.748Z,102870.84
2023-04-08T23:31:45.733Z,102873.69
2023-04-08T23:34:13.384Z,102869.63
2023-04-08T23:36:41.040Z,102862.13
2023-04-08T23:39:08.650Z,102859.69
2023-04-08T23:41:36.341Z,102857.38
2023-04-08T23:44:03.956Z,102859.28
2023-04-08T23:46:31.926Z,102857.59
2023-04-08T23:49:00.911Z,102858.53
2023-04-08T23:51:28.808Z,102856.09
2023-04-08T23:53:56.458Z,102856.28
2023-04-08T23:56:24.274Z,102853.88
2023-04-08T23:58:52.132Z,102857.69
